createdAt,value
2022-09-21T00:01:20.672Z,8.85
2022-09-21T00:03:48.526Z,8.78
2022-09-21T00:06:20.456Z,8.72
2022-09-21T00:08:47.981Z,8.69
2022-09-21T00:11:16.741Z,8.74
2022-09-21T00:13:44.304Z,8.68
2022-09-21T00:16:11.038Z,8.65
2022-09-21T00:18:38.174Z,8.58
2022-09-21T00:21:14.442Z,8.56
2022-09-21T00:23:41.973Z,8.56
2022-09-21T00:26:10.442Z,8.50
2022-09-21T00:28:37.950Z,8.48
2022-09-21T00:31:07.170Z,8.46
2022-09-21T00:33:34.814Z,8.40
2022-09-21T00:36:05.767Z,8.39
2022-09-21T00:38:33.173Z,8.38
2022-09-21T00:41:00.170Z,8.42
2022-09-21T00:43:27.371Z,8.39
2022-09-21T00:46:05.347Z,8.33
2022-09-21T00:48:33.680Z,8.26
2022-09-21T00:51:05.737Z,8.24
2022-09-21T00:53:32.903Z,8.18
2022-09-21T00:56:02.670Z,8.21
2022-09-21T00:58:34.594Z,8.13
2022-09-21T01:01:01.358Z,8.12
2022-09-21T01:03:31.415Z,8.12
2022-09-21T01:05:58.217Z,8.07
2022-09-21T01:08:28.381Z,8.11
2022-09-21T01:11:46.785Z,8.07
2022-09-21T01:14:34.894Z,8.09
2022-09-21T01:17:19.818Z,8.07
2022-09-21T01:19:49.635Z,8.01
2022-09-21T01:22:43.429Z,7.97
2022-09-21T01:25:48.505Z,7.91
2022-09-21T01:28:44.322Z,7.99
2022-09-21T01:31:22.104Z,7.95
2022-09-21T01:33:54.470Z,7.90
2022-09-21T01:36:25.893Z,7.86
2022-09-21T01:38:57.330Z,7.86
2022-09-21T01:41:28.065Z,7.81
2022-09-21T01:44:01.646Z,7.79
2022-09-21T01:46:32.623Z,7.74
2022-09-21T01:49:09.296Z,7.73
2022-09-21T01:51:41.286Z,7.75
2022-09-21T01:54:13.183Z,7.73
2022-09-21T01:56:46.610Z,7.72
2022-09-21T01:59:16.133Z,7.70
2022-09-21T02:01:54.056Z,7.65
2022-09-21T02:04:20.923Z,7.66
2022-09-21T02:06:49.096Z,7.65
2022-09-21T02:09:17.326Z,7.58
2022-09-21T02:11:45.053Z,7.56
2022-09-21T02:14:20.447Z,7.48
2022-09-21T02:17:08.030Z,7.49
2022-09-21T02:20:03.452Z,7.45
2022-09-21T02:22:49.531Z,7.42
2022-09-21T02:25:21.303Z,7.41
2022-09-21T02:28:12.166Z,7.38
2022-09-21T02:30:45.043Z,7.34
2022-09-21T02:33:18.132Z,7.34
2022-09-21T02:35:54.337Z,7.38
2022-09-21T02:38:41.477Z,7.40
2022-09-21T02:41:28.210Z,7.38
2022-09-21T02:44:07.429Z,7.38
2022-09-21T02:46:54.954Z,7.32
2022-09-21T02:49:46.083Z,7.28
2022-09-21T02:52:16.564Z,7.31
2022-09-21T02:54:47.814Z,7.26
2022-09-21T02:57:17.258Z,7.34
2022-09-21T02:59:44.278Z,7.26
2022-09-21T03:02:12.628Z,7.32
2022-09-21T03:04:44.543Z,7.32
2022-09-21T03:07:11.484Z,7.28
2022-09-21T03:09:38.313Z,7.27
2022-09-21T03:12:05.234Z,7.27
2022-09-21T03:14:33.349Z,7.30
2022-09-21T03:17:00.764Z,7.31
2022-09-21T03:19:28.510Z,7.27
2022-09-21T03:21:55.489Z,7.25
2022-09-21T03:24:40.768Z,7.23
2022-09-21T03:27:09.320Z,7.24
2022-09-21T03:29:36.150Z,7.25
2022-09-21T03:32:03.755Z,7.27
2022-09-21T03:34:31.462Z,7.23
2022-09-21T03:36:58.289Z,7.23
2022-09-21T03:39:25.333Z,7.25
2022-09-21T03:41:52.675Z,7.23
2022-09-21T03:44:20.030Z,7.21
2022-09-21T03:46:46.667Z,7.21
2022-09-21T03:49:13.414Z,7.23
2022-09-21T03:51:40.614Z,7.20
2022-09-21T03:54:07.598Z,7.20
2022-09-21T03:56:34.224Z,7.19
2022-09-21T03:59:00.980Z,7.20
2022-09-21T04:01:27.859Z,7.22
2022-09-21T04:03:54.489Z,7.26
2022-09-21T04:06:21.383Z,7.24
2022-09-21T04:08:48.074Z,7.20
2022-09-21T04:11:18.579Z,7.20
2022-09-21T04:13:49.742Z,7.24
2022-09-21T04:16:18.022Z,7.15
2022-09-21T04:18:44.769Z,7.13
2022-09-21T04:21:11.479Z,7.02
2022-09-21T04:23:38.178Z,7.00
2022-09-21T04:26:04.992Z,6.95
2022-09-21T04:28:32.950Z,6.95
2022-09-21T04:30:59.693Z,6.92
2022-09-21T04:33:26.475Z,6.91
2022-09-21T04:35:56.409Z,6.93
2022-09-21T04:38:23.105Z,6.91
2022-09-21T04:40:57.818Z,6.88
2022-09-21T04:43:25.708Z,6.89
2022-09-21T04:45:52.401Z,6.81
2022-09-21T04:48:19.102Z,6.91
2022-09-21T04:50:49.571Z,6.92
2022-09-21T04:53:16.991Z,6.92
2022-09-21T04:55:45.378Z,6.94
2022-09-21T04:58:12.000Z,6.92
2022-09-21T05:00:38.738Z,6.93
2022-09-21T05:03:05.571Z,6.93
2022-09-21T05:05:33.193Z,6.94
2022-09-21T05:08:00.103Z,6.97
2022-09-21T05:10:27.201Z,6.96
2022-09-21T05:12:53.893Z,6.93
2022-09-21T05:15:22.054Z,6.93
2022-09-21T05:17:48.867Z,6.88
2022-09-21T05:20:15.720Z,6.85
2022-09-21T05:22:42.347Z,6.85
2022-09-21T05:25:09.689Z,6.79
2022-09-21T05:27:36.363Z,6.73
2022-09-21T05:30:03.728Z,6.74
2022-09-21T05:32:31.453Z,6.73
2022-09-21T05:35:13.401Z,6.72
2022-09-21T05:37:50.203Z,6.70
2022-09-21T05:40:17.407Z,6.69
2022-09-21T05:42:44.471Z,6.65
2022-09-21T05:45:17.824Z,6.63
2022-09-21T05:47:50.419Z,6.65
2022-09-21T05:50:16.952Z,6.61
2022-09-21T05:52:49.555Z,6.59
2022-09-21T05:55:26.923Z,6.55
2022-09-21T05:58:12.278Z,6.56
2022-09-21T06:01:02.207Z,6.52
2022-09-21T06:03:30.942Z,6.56
2022-09-21T06:05:58.718Z,6.60
2022-09-21T06:08:26.782Z,6.60
2022-09-21T06:10:54.799Z,6.63
2022-09-21T06:13:21.744Z,6.61
2022-09-21T06:15:48.385Z,6.67
2022-09-21T06:18:17.931Z,6.66
2022-09-21T06:20:45.074Z,6.70
2022-09-21T06:23:15.493Z,6.69
2022-09-21T06:25:42.456Z,6.75
2022-09-21T06:28:12.648Z,6.76
2022-09-21T06:30:42.418Z,6.82
2022-09-21T06:33:09.971Z,6.89
2022-09-21T06:35:37.065Z,6.96
2022-09-21T06:38:06.062Z,7.03
2022-09-21T06:40:35.349Z,7.12
2022-09-21T06:43:04.195Z,7.25
2022-09-21T06:45:31.224Z,7.29
2022-09-21T06:47:58.368Z,7.35
2022-09-21T06:50:25.229Z,7.43
2022-09-21T06:52:51.839Z,7.57
2022-09-21T06:55:18.683Z,7.50
2022-09-21T06:57:45.430Z,7.67
2022-09-21T07:00:13.680Z,7.77
2022-09-21T07:02:45.506Z,7.81
2022-09-21T07:05:12.893Z,7.77
2022-09-21T07:07:40.496Z,7.61
2022-09-21T07:10:12.376Z,7.64
2022-09-21T07:12:43.227Z,7.78
2022-09-21T07:15:10.614Z,7.80
2022-09-21T07:17:39.635Z,7.73
2022-09-21T07:20:08.162Z,7.91
2022-09-21T07:22:35.705Z,8.05
2022-09-21T07:25:03.717Z,8.08
2022-09-21T07:27:32.457Z,8.23
2022-09-21T07:29:59.298Z,8.33
2022-09-21T07:32:26.218Z,8.40
2022-09-21T07:34:56.573Z,8.57
2022-09-21T07:37:26.381Z,8.66
2022-09-21T07:39:53.500Z,8.82
2022-09-21T07:42:22.875Z,8.78
2022-09-21T07:44:51.272Z,8.88
2022-09-21T07:47:18.426Z,9.00
2022-09-21T07:49:47.028Z,9.13
2022-09-21T07:52:15.602Z,9.19
2022-09-21T07:54:42.317Z,9.28
2022-09-21T07:57:27.662Z,9.26
2022-09-21T07:59:58.233Z,9.29
2022-09-21T08:02:24.904Z,9.41
2022-09-21T08:04:52.019Z,9.34
2022-09-21T08:07:19.246Z,9.40
2022-09-21T08:09:49.462Z,9.41
2022-09-21T08:12:18.751Z,9.30
2022-09-21T08:14:45.776Z,9.43
2022-09-21T08:17:12.439Z,9.46
2022-09-21T08:19:39.259Z,9.45
2022-09-21T08:22:06.554Z,9.46
2022-09-21T08:24:33.422Z,9.46
2022-09-21T08:27:00.390Z,9.43
2022-09-21T08:29:27.372Z,9.47
2022-09-21T08:31:54.029Z,9.48
2022-09-21T08:34:20.894Z,9.52
2022-09-21T08:36:50.650Z,9.52
2022-09-21T08:39:19.702Z,9.60
2022-09-21T08:42:14.874Z,9.66
2022-09-21T08:44:56.695Z,9.76
2022-09-21T08:47:34.083Z,9.94
2022-09-21T08:50:06.030Z,10.07
2022-09-21T08:52:33.643Z,10.20
2022-09-21T08:55:13.109Z,10.35
2022-09-21T08:57:42.092Z,10.39
2022-09-21T09:00:15.568Z,10.60
2022-09-21T09:03:05.402Z,10.74
2022-09-21T09:05:43.848Z,10.87
2022-09-21T09:08:22.406Z,11.01
2022-09-21T09:10:58.103Z,11.18
2022-09-21T09:13:32.076Z,11.32
2022-09-21T09:16:36.808Z,11.50
2022-09-21T09:19:19.006Z,11.63
2022-09-21T09:21:46.799Z,11.83
2022-09-21T09:24:35.326Z,12.08
2022-09-21T09:27:15.214Z,12.27
2022-09-21T09:30:04.625Z,12.40
2022-09-21T09:32:43.063Z,12.71
2022-09-21T09:35:26.897Z,13.00
2022-09-21T09:38:19.502Z,13.42
2022-09-21T09:40:52.563Z,13.84
2022-09-21T09:43:46.783Z,14.39
2022-09-21T09:46:23.297Z,14.75
2022-09-21T09:49:05.218Z,15.28
2022-09-21T09:51:35.277Z,15.91
2022-09-21T09:54:06.916Z,16.05
2022-09-21T09:56:36.462Z,16.97
2022-09-21T09:59:09.623Z,17.75
2022-09-21T10:01:42.736Z,18.28
2022-09-21T10:04:12.201Z,18.70
2022-09-21T10:06:45.177Z,19.39
2022-09-21T10:09:31.920Z,20.05
2022-09-21T10:12:05.722Z,20.63
2022-09-21T10:14:35.330Z,20.99
2022-09-21T10:17:07.402Z,21.34
2022-09-21T10:19:34.498Z,21.63
2022-09-21T10:22:04.339Z,21.96
2022-09-21T10:24:37.850Z,22.07
2022-09-21T10:27:11.792Z,21.89
2022-09-21T10:29:47.793Z,22.53
2022-09-21T10:32:15.201Z,22.10
2022-09-21T10:35:01.430Z,20.50
2022-09-21T10:37:41.381Z,20.10
2022-09-21T10:40:20.307Z,21.15
2022-09-21T10:42:54.717Z,21.77
2022-09-21T10:45:30.613Z,22.60
2022-09-21T10:47:57.486Z,23.28
2022-09-21T10:50:30.538Z,21.35
2022-09-21T10:53:09.445Z,20.40
2022-09-21T10:56:12.007Z,21.30
2022-09-21T10:59:22.146Z,22.26
2022-09-21T11:01:54.892Z,20.45
2022-09-21T11:04:48.597Z,19.89
2022-09-21T11:07:25.168Z,21.29
2022-09-21T11:10:18.639Z,21.92
2022-09-21T11:13:30.908Z,22.42
2022-09-21T11:16:20.198Z,22.07
2022-09-21T11:19:09.141Z,21.45
2022-09-21T11:21:50.303Z,21.75
2022-09-21T11:24:43.548Z,21.56
2022-09-21T11:27:28.422Z,21.19
2022-09-21T11:30:07.288Z,22.10
2022-09-21T11:33:19.712Z,21.92
2022-09-21T11:35:59.290Z,21.35
2022-09-21T11:39:11.017Z,19.98
2022-09-21T11:41:50.116Z,19.81
2022-09-21T11:44:19.825Z,21.18
2022-09-21T11:47:03.563Z,22.50
2022-09-21T11:49:59.010Z,23.82
2022-09-21T11:52:34.448Z,22.43
2022-09-21T11:55:09.591Z,21.86
2022-09-21T11:58:10.652Z,20.44
2022-09-21T12:00:53.845Z,20.56
2022-09-21T12:03:45.580Z,20.12
2022-09-21T12:06:24.247Z,19.91
2022-09-21T12:09:05.981Z,19.62
2022-09-21T12:12:08.129Z,19.30
2022-09-21T12:14:34.832Z,19.01
2022-09-21T12:17:05.707Z,18.88
2022-09-21T12:19:41.881Z,18.82
2022-09-21T12:22:24.539Z,20.85
2022-09-21T12:24:55.215Z,20.36
2022-09-21T12:27:39.515Z,21.86
2022-09-21T12:30:17.109Z,22.55
2022-09-21T12:32:57.088Z,22.06
2022-09-21T12:35:39.507Z,21.21
2022-09-21T12:38:15.528Z,20.78
2022-09-21T12:40:57.801Z,20.25
2022-09-21T12:43:33.449Z,20.02
2022-09-21T12:46:22.305Z,21.21
2022-09-21T12:48:49.422Z,22.70
2022-09-21T12:51:25.666Z,23.10
2022-09-21T12:53:55.405Z,22.57
2022-09-21T12:56:46.867Z,21.90
2022-09-21T12:59:19.885Z,21.44
2022-09-21T13:02:17.727Z,20.78
2022-09-21T13:05:04.823Z,21.28
2022-09-21T13:07:57.178Z,23.01
2022-09-21T13:10:45.945Z,23.71
2022-09-21T13:13:38.762Z,23.65
2022-09-21T13:16:34.127Z,23.33
2022-09-21T13:19:02.713Z,22.47
2022-09-21T13:21:32.252Z,21.87
2022-09-21T13:24:02.173Z,21.45
2022-09-21T13:26:37.586Z,21.02
2022-09-21T13:29:20.568Z,20.82
2022-09-21T13:32:00.403Z,20.39
2022-09-21T13:34:35.218Z,20.32
2022-09-21T13:37:26.030Z,19.93
2022-09-21T13:40:01.609Z,19.81
2022-09-21T13:42:34.800Z,19.67
2022-09-21T13:45:13.824Z,19.77
2022-09-21T13:47:42.872Z,20.84
2022-09-21T13:50:34.548Z,22.38
2022-09-21T13:53:17.705Z,23.49
2022-09-21T13:56:16.785Z,24.57
2022-09-21T13:58:47.113Z,24.56
2022-09-21T14:01:45.347Z,25.00
2022-09-21T14:04:25.394Z,24.18
2022-09-21T14:06:54.321Z,24.08
2022-09-21T14:09:23.868Z,23.71
2022-09-21T14:12:19.474Z,22.60
2022-09-21T14:15:11.316Z,21.96
2022-09-21T14:17:40.679Z,22.90
2022-09-21T14:20:30.423Z,23.90
2022-09-21T14:23:20.069Z,23.77
2022-09-21T14:25:58.046Z,23.06
2022-09-21T14:28:38.542Z,22.89
2022-09-21T14:31:19.080Z,22.30
2022-09-21T14:33:50.316Z,21.84
2022-09-21T14:36:22.358Z,21.35
2022-09-21T14:39:00.587Z,20.66
2022-09-21T14:41:34.503Z,20.09
2022-09-21T14:44:01.611Z,19.77
2022-09-21T14:47:04.125Z,19.63
2022-09-21T14:49:39.975Z,19.45
2022-09-21T14:52:54.830Z,19.30
2022-09-21T14:55:43.228Z,19.09
2022-09-21T14:58:42.858Z,19.06
2022-09-21T15:01:42.296Z,18.88
2022-09-21T15:04:27.350Z,18.75
2022-09-21T15:07:31.119Z,18.35
2022-09-21T15:10:41.034Z,17.97
2022-09-21T15:13:26.521Z,19.63
2022-09-21T15:15:53.329Z,21.26
2022-09-21T15:18:25.634Z,22.14
2022-09-21T15:21:02.391Z,22.85
2022-09-21T15:23:34.720Z,22.63
2022-09-21T15:26:14.920Z,21.98
2022-09-21T15:29:08.470Z,21.59
2022-09-21T15:31:38.053Z,21.37
2022-09-21T15:34:06.898Z,21.73
2022-09-21T15:36:38.502Z,22.65
2022-09-21T15:39:05.949Z,23.37
2022-09-21T15:41:47.586Z,24.01
2022-09-21T15:44:24.447Z,24.34
2022-09-21T15:49:49.204Z,25.21
2022-09-21T15:52:31.582Z,25.12
2022-09-21T15:55:09.737Z,25.32
2022-09-21T15:57:40.730Z,25.39
2022-09-21T16:00:23.543Z,25.49
2022-09-21T16:03:19.554Z,25.52
2022-09-21T16:05:50.240Z,25.32
2022-09-21T16:08:27.547Z,25.19
2022-09-21T16:11:15.835Z,24.95
2022-09-21T16:14:06.005Z,24.69
2022-09-21T16:16:32.902Z,24.53
2022-09-21T16:19:00.280Z,24.24
2022-09-21T16:21:37.836Z,24.02
2022-09-21T16:24:13.670Z,23.10
2022-09-21T16:26:41.692Z,22.31
2022-09-21T16:29:08.551Z,21.93
2022-09-21T16:31:37.346Z,21.33
2022-09-21T16:34:33.348Z,20.77
2022-09-21T16:37:02.802Z,20.11
2022-09-21T16:39:29.434Z,19.84
2022-09-21T16:42:01.507Z,19.54
2022-09-21T16:44:31.538Z,19.28
2022-09-21T16:47:01.148Z,18.82
2022-09-21T16:49:32.848Z,18.31
2022-09-21T16:51:59.857Z,17.90
2022-09-21T16:54:27.778Z,17.73
2022-09-21T16:56:57.651Z,17.70
2022-09-21T16:59:25.533Z,17.60
2022-09-21T17:01:56.262Z,17.41
2022-09-21T17:04:28.761Z,17.12
2022-09-21T17:06:56.102Z,16.83
2022-09-21T17:09:31.389Z,16.65
2022-09-21T17:12:01.378Z,16.43
2022-09-21T17:14:33.009Z,16.38
2022-09-21T17:17:00.800Z,16.22
2022-09-21T17:19:27.892Z,16.09
2022-09-21T17:21:54.671Z,15.82
2022-09-21T17:24:45.866Z,15.63
2022-09-21T17:27:08.218Z,15.28
2022-09-21T17:29:37.267Z,15.12
2022-09-21T17:32:09.748Z,15.01
2022-09-21T17:34:36.680Z,14.84
2022-09-21T17:37:03.493Z,14.82
2022-09-21T17:39:30.255Z,14.77
2022-09-21T17:42:02.848Z,14.68
2022-09-21T17:44:52.548Z,14.53
2022-09-21T17:47:23.633Z,14.44
2022-09-21T17:49:51.325Z,14.35
2022-09-21T17:52:39.161Z,14.21
2022-09-21T17:55:08.729Z,14.00
2022-09-21T17:57:59.654Z,13.78
2022-09-21T18:00:50.622Z,13.83
2022-09-21T18:04:44.976Z,13.55
2022-09-21T18:07:12.377Z,13.57
2022-09-21T18:09:39.389Z,13.50
2022-09-21T18:12:28.366Z,13.47
2022-09-21T18:15:15.017Z,13.39
2022-09-21T18:18:12.849Z,13.31
2022-09-21T18:21:03.724Z,13.22
2022-09-21T18:23:42.586Z,13.18
2022-09-21T18:26:15.575Z,13.06
2022-09-21T18:28:49.981Z,13.07
2022-09-21T18:31:58.386Z,13.02
2022-09-21T18:34:52.129Z,12.79
2022-09-21T18:37:40.098Z,12.81
2022-09-21T18:40:09.590Z,12.71
2022-09-21T18:42:42.419Z,12.73
2022-09-21T18:45:20.083Z,12.62
2022-09-21T18:47:59.253Z,12.53
2022-09-21T18:50:50.517Z,12.40
2022-09-21T18:53:34.001Z,12.21
2022-09-21T18:56:01.083Z,12.15
2022-09-21T18:58:30.187Z,12.09
2022-09-21T19:00:57.412Z,12.01
2022-09-21T19:03:24.751Z,11.92
2022-09-21T19:05:57.523Z,11.93
2022-09-21T19:08:33.369Z,11.89
2022-09-21T19:11:04.446Z,11.89
2022-09-21T19:14:01.287Z,11.84
2022-09-21T19:16:43.008Z,11.72
2022-09-21T19:19:12.759Z,11.63
2022-09-21T19:21:52.201Z,11.56
2022-09-21T19:24:30.750Z,11.54
2022-09-21T19:27:44.844Z,11.50
2022-09-21T19:30:14.606Z,11.32
2022-09-21T19:32:53.091Z,11.24
2022-09-21T19:35:26.563Z,11.25
2022-09-21T19:37:55.866Z,11.26
2022-09-21T19:40:25.754Z,11.29
2022-09-21T19:42:59.605Z,11.24
2022-09-21T19:45:38.284Z,11.13
2022-09-21T19:48:11.565Z,11.05
2022-09-21T19:50:54.815Z,10.98
2022-09-21T19:53:41.808Z,10.88
2022-09-21T19:56:32.729Z,10.85
2022-09-21T19:59:18.867Z,10.86
2022-09-21T20:01:56.467Z,10.77
2022-09-21T20:05:08.080Z,10.76
2022-09-21T20:07:44.481Z,10.76
2022-09-21T20:10:42.167Z,10.65
2022-09-21T20:13:29.266Z,10.45
2022-09-21T20:16:04.046Z,10.43
2022-09-21T20:18:45.319Z,10.47
2022-09-21T20:21:15.308Z,10.53
2022-09-21T20:23:42.174Z,10.55
2022-09-21T20:26:27.904Z,10.57
2022-09-21T20:28:55.255Z,10.56
2022-09-21T20:31:32.876Z,10.49
2022-09-21T20:33:59.889Z,10.44
2022-09-21T20:36:32.960Z,10.25
2022-09-21T20:39:02.513Z,10.22
2022-09-21T20:41:29.253Z,10.20
2022-09-21T20:43:56.868Z,10.22
2022-09-21T20:46:23.592Z,10.20
2022-09-21T20:49:02.401Z,10.16
2022-09-21T20:51:29.187Z,10.10
2022-09-21T20:53:58.602Z,10.07
2022-09-21T20:56:26.678Z,10.10
2022-09-21T20:58:53.958Z,10.03
2022-09-21T21:01:20.712Z,9.92
2022-09-21T21:03:47.435Z,9.93
2022-09-21T21:06:18.784Z,9.91
2022-09-21T21:08:46.542Z,9.91
2022-09-21T21:11:17.554Z,9.93
2022-09-21T21:13:44.385Z,9.94
2022-09-21T21:16:12.508Z,9.84
2022-09-21T21:18:42.846Z,9.66
2022-09-21T21:21:09.918Z,9.56
2022-09-21T21:23:55.505Z,9.46
2022-09-21T21:26:33.549Z,9.40
2022-09-21T21:29:09.607Z,9.36
2022-09-21T21:31:36.844Z,9.38
2022-09-21T21:34:03.653Z,9.34
2022-09-21T21:36:30.471Z,9.34
2022-09-21T21:38:57.527Z,9.35
2022-09-21T21:41:24.766Z,9.33
2022-09-21T21:43:52.153Z,9.39
2022-09-21T21:46:18.919Z,9.37
2022-09-21T21:48:45.829Z,9.30
2022-09-21T21:51:12.974Z,9.26
2022-09-21T21:53:40.586Z,9.21
2022-09-21T21:56:07.361Z,9.20
2022-09-21T21:58:34.625Z,9.12
2022-09-21T22:01:17.383Z,9.12
2022-09-21T22:03:44.154Z,9.09
2022-09-21T22:06:11.688Z,9.08
2022-09-21T22:08:40.093Z,9.12
2022-09-21T22:11:07.655Z,9.01
2022-09-21T22:13:39.391Z,8.96
2022-09-21T22:16:12.817Z,8.94
2022-09-21T22:18:39.947Z,8.91
2022-09-21T22:21:18.108Z,8.97
2022-09-21T22:23:44.858Z,8.93
2022-09-21T22:26:16.114Z,8.93
2022-09-21T22:28:49.318Z,8.93
2022-09-21T22:31:18.676Z,8.89
2022-09-21T22:33:45.908Z,8.89
2022-09-21T22:36:17.809Z,8.69
2022-09-21T22:38:45.226Z,8.67
2022-09-21T22:41:14.794Z,8.63
2022-09-21T22:43:41.603Z,8.59
2022-09-21T22:46:09.082Z,8.58
2022-09-21T22:48:35.843Z,8.59
2022-09-21T22:51:03.558Z,8.54
2022-09-21T22:53:31.743Z,8.50
2022-09-21T22:56:07.337Z,8.38
2022-09-21T22:58:35.939Z,8.37
2022-09-21T23:01:13.291Z,8.38
2022-09-21T23:03:41.737Z,8.41
2022-09-21T23:06:10.771Z,8.32
2022-09-21T23:08:37.889Z,8.35
2022-09-21T23:11:13.382Z,8.30
2022-09-21T23:13:40.310Z,8.32
2022-09-21T23:16:09.889Z,8.29
2022-09-21T23:18:37.633Z,8.22
2022-09-21T23:21:10.333Z,8.20
2022-09-21T23:23:37.278Z,8.22
2022-09-21T23:26:09.677Z,8.15
2022-09-21T23:28:37.321Z,8.10
2022-09-21T23:31:07.498Z,8.09
2022-09-21T23:33:39.916Z,8.07
2022-09-21T23:36:08.879Z,8.06
2022-09-21T23:38:36.292Z,8.11
2022-09-21T23:41:03.370Z,8.10
2022-09-21T23:43:30.145Z,8.02
2022-09-21T23:45:57.525Z,7.93
2022-09-21T23:48:24.592Z,7.92
2022-09-21T23:50:51.527Z,7.91
2022-09-21T23:53:18.407Z,7.89
2022-09-21T23:55:45.304Z,7.86
2022-09-21T23:58:11.986Z,7.84
